Time;durP1;ratioP1;P1;durP2;ratioP2;P2;SDS_P1;SDS_P2;PMS_P1;PMS_P2;Temp;Humidity;BMP_temperature;BMP_pressure;BME280_temperature;BME280_humidity;BME280_pressure;Samples;Min_cycle;Max_cycle;Signal;HPM_P1;HPM_P2
2024/02/04 00:00:38;;;;;;;;;;;4.90;99.90;;;;;;21134734;28;20398;-80
2024/02/04 00:10:39;;;;;;;;;;;4.90;99.90;;;;;;21140459;28;19916;-81
2024/02/04 00:20:40;;;;;;;;;;;5.00;99.90;;;;;;21137558;28;19919;-79
2024/02/04 00:30:40;;;;;;;;;;;5.00;99.90;;;;;;21130353;28;19916;-79
2024/02/04 00:40:41;;;;;;;;;;;5.00;99.90;;;;;;21131481;28;19958;-81
2024/02/04 00:50:42;;;;;;;;;;;5.10;99.90;;;;;;21134024;28;19916;-80
2024/02/04 01:00:43;;;;;;;;;;;5.00;99.90;;;;;;21123592;28;20385;-81
2024/02/04 01:10:44;;;;;;;;;;;5.10;99.90;;;;;;21134405;28;19920;-82
2024/02/04 01:20:44;;;;;;;;;;;5.00;99.90;;;;;;21130183;28;19915;-82
2024/02/04 01:30:45;;;;;;;;;;;5.00;99.90;;;;;;21138010;28;19969;-81
2024/02/04 01:40:51;;;;;;;;;;;5.00;99.90;;;;;;21136082;28;19957;-81
2024/02/04 01:50:53;;;;;;;;;;;4.90;99.90;;;;;;21112612;28;19916;-83
2024/02/04 02:00:54;;;;;;;;;;;5.00;99.90;;;;;;21113980;28;19922;-82
2024/02/04 02:11:05;;;;;;;;;;;5.00;99.90;;;;;;21126326;28;19915;-82
2024/02/04 02:21:29;;;;;;;;;;;5.00;99.90;;;;;;21108268;28;20002;-81
2024/02/04 02:31:30;;;;;;;;;;;5.00;99.90;;;;;;21090322;28;19916;-80
2024/02/04 02:41:31;;;;;;;;;;;5.00;99.90;;;;;;21120302;28;19980;-82
2024/02/04 02:51:32;;;;;;;;;;;5.00;99.90;;;;;;21123934;28;20325;-81
2024/02/04 03:01:33;;;;;;;;;;;5.00;99.90;;;;;;21112072;28;19915;-81
2024/02/04 03:11:36;;;;;;;;;;;5.00;99.90;;;;;;21100610;28;20282;-80
2024/02/04 03:21:37;;;;;;;;;;;5.00;99.90;;;;;;21116193;28;20381;-79
2024/02/04 03:31:37;;;;;;;;;;;5.00;99.90;;;;;;21114047;28;19959;-82
2024/02/04 03:41:38;;;;;;;;;;;5.00;99.90;;;;;;21135880;28;20453;-82
2024/02/04 03:51:39;;;;;;;;;;;5.00;99.90;;;;;;21135666;28;20359;-81
2024/02/04 04:01:40;;;;;;;;;;;5.10;99.90;;;;;;21134331;28;20444;-82
2024/02/04 04:11:41;;;;;;;;;;;5.10;99.90;;;;;;21131871;28;19916;-82
2024/02/04 04:21:41;;;;;;;;;;;5.10;99.90;;;;;;21135863;28;19913;-78
2024/02/04 04:31:42;;;;;;;;;;;5.10;99.90;;;;;;21134310;28;19923;-80
2024/02/04 04:41:44;;;;;;;;;;;5.20;99.90;;;;;;21129884;28;19912;-82
2024/02/04 04:51:46;;;;;;;;;;;5.10;99.90;;;;;;21129184;28;19919;-82
2024/02/04 05:01:47;;;;;;;;;;;5.20;99.90;;;;;;21136864;28;19991;-82
2024/02/04 05:11:48;;;;;;;;;;;5.20;99.90;;;;;;21131628;28;20397;-81
2024/02/04 05:21:48;;;;;;;;;;;5.10;99.90;;;;;;21137213;28;19912;-80
2024/02/04 05:31:49;;;;;;;;;;;5.20;99.90;;;;;;21127048;28;19916;-81
2024/02/04 05:41:49;;;;;;;;;;;5.20;99.90;;;;;;21140545;28;19966;-80
2024/02/04 05:51:50;;;;;;;;;;;5.20;99.90;;;;;;21109964;28;19920;-81
2024/02/04 06:01:51;;;;;;;;;;;5.30;99.90;;;;;;21128493;28;19912;-83
2024/02/04 06:11:51;;;;;;;;;;;5.30;99.90;;;;;;21115572;28;19920;-82
2024/02/04 06:21:52;;;;;;;;;;;5.30;99.90;;;;;;21109918;28;19919;-80
2024/02/04 06:31:52;;;;;;;;;;;5.30;99.90;;;;;;21125228;28;19920;-82
2024/02/04 06:41:53;;;;;;;;;;;5.20;99.90;;;;;;21119543;28;19962;-81
2024/02/04 06:51:56;;;;;;;;;;;5.20;99.90;;;;;;21132613;28;20425;-81
2024/02/04 07:01:57;;;;;;;;;;;5.20;99.90;;;;;;21140852;28;19918;-81
2024/02/04 07:11:57;;;;;;;;;;;5.20;99.90;;;;;;21135788;28;19955;-82
2024/02/04 07:21:58;;;;;;;;;;;5.20;99.90;;;;;;21135034;28;19912;-80
2024/02/04 07:31:59;;;;;;;;;;;5.20;99.90;;;;;;21133379;28;19955;-81
2024/02/04 07:42:00;;;;;;;;;;;5.20;99.90;;;;;;21145115;28;19912;-83
2024/02/04 07:52:01;;;;;;;;;;;5.30;99.90;;;;;;21128754;28;20302;-80
2024/02/04 08:02:01;;;;;;;;;;;5.40;99.90;;;;;;21134360;28;19958;-81
2024/02/04 08:12:03;;;;;;;;;;;5.40;99.90;;;;;;21147180;27;19915;-82
2024/02/04 08:22:05;;;;;;;;;;;5.50;99.90;;;;;;21134713;28;20411;-82
2024/02/04 08:32:06;;;;;;;;;;;5.60;99.90;;;;;;21130955;28;20291;-81
2024/02/04 08:42:06;;;;;;;;;;;5.50;99.90;;;;;;21110540;28;19912;-80
2024/02/04 08:52:07;;;;;;;;;;;5.50;99.90;;;;;;21112242;28;20170;-81
2024/02/04 09:02:08;;;;;;;;;;;5.60;99.90;;;;;;21128040;28;20339;-82
2024/02/04 09:12:09;;;;;;;;;;;5.80;99.90;;;;;;21131980;28;20006;-81
2024/02/04 09:22:10;;;;;;;;;;;5.90;99.90;;;;;;21160300;28;19911;-80
2024/02/04 09:32:10;;;;;;;;;;;6.30;99.90;;;;;;21202256;28;19964;-80
2024/02/04 09:42:15;;;;;;;;;;;7.00;99.90;;;;;;21171277;28;19912;-81
2024/02/04 09:52:18;;;;;;;;;;;6.80;99.90;;;;;;21188561;28;20422;-79
2024/02/04 10:02:21;;;;;;;;;;;6.80;99.90;;;;;;21130034;28;19919;-80
2024/02/04 10:12:21;;;;;;;;;;;7.00;99.90;;;;;;21137667;28;19915;-81
2024/02/04 10:22:22;;;;;;;;;;;7.10;99.90;;;;;;21119995;28;19912;-82
2024/02/04 10:32:24;;;;;;;;;;;8.00;99.90;;;;;;21136058;28;20140;-81
2024/02/04 10:42:26;;;;;;;;;;;7.80;99.90;;;;;;21122175;28;19919;-80
2024/02/04 10:52:27;;;;;;;;;;;8.70;99.90;;;;;;21117674;28;19916;-81
2024/02/04 11:02:28;;;;;;;;;;;8.50;99.90;;;;;;21131645;28;20271;-80
2024/02/04 11:12:30;;;;;;;;;;;9.30;99.90;;;;;;21130594;28;19988;-80
2024/02/04 11:22:36;;;;;;;;;;;9.80;99.90;;;;;;21125512;28;19938;-80
2024/02/04 11:32:37;;;;;;;;;;;10.00;99.90;;;;;;21131117;28;20006;-80
2024/02/04 11:42:37;;;;;;;;;;;9.70;99.90;;;;;;21149827;28;19955;-81
2024/02/04 11:52:39;;;;;;;;;;;10.20;99.90;;;;;;21152848;28;19923;-81
2024/02/04 12:02:40;;;;;;;;;;;11.20;99.90;;;;;;21180784;28;20218;-81
2024/02/04 12:12:41;;;;;;;;;;;12.30;99.90;;;;;;21179205;28;19916;-80
2024/02/04 12:22:42;;;;;;;;;;;12.70;99.90;;;;;;21162987;28;19919;-80
2024/02/04 12:32:43;;;;;;;;;;;11.40;99.90;;;;;;21156342;28;19947;-79
2024/02/04 12:42:44;;;;;;;;;;;11.30;99.90;;;;;;21173098;28;19912;-80
2024/02/04 12:52:45;;;;;;;;;;;10.70;99.90;;;;;;21170191;28;20333;-80
2024/02/04 13:02:50;;;;;;;;;;;11.40;99.90;;;;;;21181499;28;19913;-79
2024/02/04 13:13:00;;;;;;;;;;;11.20;99.90;;;;;;21173767;28;19923;-80
2024/02/04 13:23:03;;;;;;;;;;;11.20;99.90;;;;;;21160818;28;19912;-80
2024/02/04 13:33:04;;;;;;;;;;;10.90;99.90;;;;;;21166349;28;19916;-80
2024/02/04 13:43:04;;;;;;;;;;;10.70;99.90;;;;;;21167381;28;20383;-80
2024/02/04 13:53:05;;;;;;;;;;;10.60;99.90;;;;;;21149510;28;19916;-81
2024/02/04 14:03:06;;;;;;;;;;;10.80;99.90;;;;;;21141646;28;19927;-80
2024/02/04 14:13:07;;;;;;;;;;;10.10;99.90;;;;;;21128584;28;19920;-79
2024/02/04 14:23:08;;;;;;;;;;;9.80;99.90;;;;;;21141892;28;19919;-80
2024/02/04 14:33:09;;;;;;;;;;;10.20;99.90;;;;;;21154401;28;19998;-79
2024/02/04 14:43:12;;;;;;;;;;;10.00;99.90;;;;;;21123770;28;19927;-80
2024/02/04 14:53:12;;;;;;;;;;;9.70;99.90;;;;;;21136484;28;20378;-79
2024/02/04 15:03:13;;;;;;;;;;;9.40;99.90;;;;;;21123477;28;19912;-79
2024/02/04 15:13:14;;;;;;;;;;;9.40;99.90;;;;;;21129688;28;19919;-80
2024/02/04 15:23:16;;;;;;;;;;;9.30;99.90;;;;;;21117652;28;19912;-80
2024/02/04 15:33:17;;;;;;;;;;;9.00;99.90;;;;;;21118115;28;19923;-80
2024/02/04 15:43:18;;;;;;;;;;;8.80;99.90;;;;;;21117098;28;19912;-81
2024/02/04 15:53:19;;;;;;;;;;;8.60;99.90;;;;;;21143264;28;19930;-81
2024/02/04 16:03:19;;;;;;;;;;;8.40;99.90;;;;;;21115740;28;19919;-78
2024/02/04 16:13:24;;;;;;;;;;;8.20;99.90;;;;;;21154151;28;19915;-80
2024/02/04 16:23:25;;;;;;;;;;;8.00;99.90;;;;;;21163439;28;19920;-81
2024/02/04 16:33:26;;;;;;;;;;;7.80;99.90;;;;;;21151376;28;19915;-81
2024/02/04 16:43:27;;;;;;;;;;;7.50;99.90;;;;;;21139569;28;19912;-80
2024/02/04 16:53:27;;;;;;;;;;;7.40;99.90;;;;;;21124247;28;19937;-82
2024/02/04 17:03:28;;;;;;;;;;;7.20;99.90;;;;;;21112195;28;19912;-82
2024/02/04 17:13:29;;;;;;;;;;;7.00;99.90;;;;;;21118074;28;19923;-80
2024/02/04 17:23:32;;;;;;;;;;;6.80;99.90;;;;;;21134295;28;19912;-79
2024/02/04 17:33:33;;;;;;;;;;;6.70;99.90;;;;;;21117516;28;19955;-81
2024/02/04 17:43:34;;;;;;;;;;;6.50;99.90;;;;;;21146454;28;19912;-82
2024/02/04 17:53:35;;;;;;;;;;;6.30;99.90;;;;;;21153974;28;19926;-81
2024/02/04 18:03:37;;;;;;;;;;;6.20;99.90;;;;;;21150663;27;19931;-78
2024/02/04 18:13:37;;;;;;;;;;;6.20;99.90;;;;;;21159209;28;19916;-79
2024/02/04 18:23:38;;;;;;;;;;;6.10;99.90;;;;;;21157312;28;20419;-81
2024/02/04 18:33:39;;;;;;;;;;;6.00;99.90;;;;;;21151264;28;19983;-83
2024/02/04 18:43:40;;;;;;;;;;;5.90;99.90;;;;;;21169131;28;20370;-81
2024/02/04 18:53:40;;;;;;;;;;;5.80;99.90;;;;;;21143136;28;19974;-82
2024/02/04 19:03:41;;;;;;;;;;;5.80;99.90;;;;;;21161366;28;19919;-81
2024/02/04 19:13:41;;;;;;;;;;;5.70;99.90;;;;;;21166782;28;20271;-82
2024/02/04 19:23:42;;;;;;;;;;;5.60;99.90;;;;;;21165178;27;19988;-80
2024/02/04 19:33:43;;;;;;;;;;;5.70;99.90;;;;;;21139279;28;19916;-81
2024/02/04 19:43:43;;;;;;;;;;;5.60;99.90;;;;;;21133707;28;19912;-81
2024/02/04 19:53:44;;;;;;;;;;;5.60;99.90;;;;;;21141994;28;19940;-81
2024/02/04 20:03:45;;;;;;;;;;;5.50;99.90;;;;;;21157664;28;19912;-81
2024/02/04 20:13:45;;;;;;;;;;;5.60;99.90;;;;;;21133529;28;19916;-80
2024/02/04 20:23:46;;;;;;;;;;;5.50;99.90;;;;;;21158176;28;19912;-82
2024/02/04 20:33:47;;;;;;;;;;;5.50;99.90;;;;;;21170362;28;19916;-78
2024/02/04 20:43:47;;;;;;;;;;;5.50;99.90;;;;;;21136754;28;19958;-78
2024/02/04 20:53:48;;;;;;;;;;;5.40;99.90;;;;;;21145303;28;19941;-79
2024/02/04 21:03:49;;;;;;;;;;;5.40;99.90;;;;;;21140209;28;19919;-80
2024/02/04 21:13:50;;;;;;;;;;;5.30;99.90;;;;;;21141034;28;19916;-81
2024/02/04 21:23:51;;;;;;;;;;;5.30;99.90;;;;;;21147915;28;19915;-78
2024/02/04 21:33:52;;;;;;;;;;;5.30;99.90;;;;;;21117860;28;19970;-80
2024/02/04 21:43:52;;;;;;;;;;;5.20;99.90;;;;;;21151340;28;19912;-80
2024/02/04 21:53:53;;;;;;;;;;;5.20;99.90;;;;;;21131034;28;19916;-82
2024/02/04 22:03:53;;;;;;;;;;;5.20;99.90;;;;;;21130858;28;19919;-80
2024/02/04 22:13:55;;;;;;;;;;;5.20;99.90;;;;;;21143287;28;19943;-81
2024/02/04 22:23:56;;;;;;;;;;;5.20;99.90;;;;;;21145547;28;19968;-79
2024/02/04 22:33:56;;;;;;;;;;;5.10;99.90;;;;;;21156892;28;19915;-81
2024/02/04 22:43:57;;;;;;;;;;;5.00;99.90;;;;;;21157796;28;19998;-80
2024/02/04 22:53:58;;;;;;;;;;;5.00;99.90;;;;;;21141936;28;20298;-81
2024/02/04 23:03:59;;;;;;;;;;;5.10;99.90;;;;;;21120561;28;19916;-81
2024/02/04 23:13:59;;;;;;;;;;;5.00;99.90;;;;;;21139360;28;19927;-83
2024/02/04 23:24:00;;;;;;;;;;;5.00;99.90;;;;;;21146361;28;19933;-81
2024/02/04 23:34:01;;;;;;;;;;;5.10;99.90;;;;;;21149857;28;19946;-81
2024/02/04 23:44:01;;;;;;;;;;;5.00;99.90;;;;;;21144729;28;20371;-80
2024/02/04 23:54:02;;;;;;;;;;;5.00;99.90;;;;;;21164448;28;19916;-81
